93OI weather

Stouffer's Dublin Heliport
Dublin, Ohio, United States

Public forecast

Using degrees Fahrenheit for public forecast. Weather courtesy of forecast.io.

Closest aviation weather report (METAR) to Stouffer's Dublin Heliport

Closest report is The Ohio State University Airport - Don Scott Field, 3.0 nm (5.6 km) ESE. Retrieved 2020/05/29 07:53 UTC (10 minutes ago):

KOSU 290753Z AUTO 20008KT 10SM SCT040 BKN050 BKN080 22/18 A2991 RMK AO2 SLP119 T02170178

Closest aviation forecast (TAF) to Stouffer's Dublin Heliport

Closest forecast is John Glenn Columbus International Airport, 12.7 nm (23.4 km) ESE. Retrieved 2020/05/29 06:42 UTC (1 hour ago):

TAF KCMH 290539Z 2906/3006 18005KT P6SM SCT060 FM291300 22010KT P6SM BKN060 FM291500 22012KT P6SM VCSH BKN050 FM291800 23012G20KT P6SM -SHRA VCTS BKN040CB FM292200 29012KT P6SM VCSH BKN060 FM300100 33006KT P6SM SCT060